Adel, OR

5:05 PM PDT on July 25, 2014 (GMT -0700)
RAWS CATNIP MOUNTAIN NV US (MCATN2) Elev 5750 ft | 41.92 °N, 119.50 °W | Change Station

Current weather conditions updated 38 minutes ago

Clear
Clear
82 °F
Feels Like 80 °F
N
9
Wind Variable Wind from West
Gusts 22.0 mph

Tomorrow is forecast to be Warmer than today.

Today
High -- | Low -- °F
--% Chance of Precip.
Yesterday
High -- | Low -- °F
Precip. -- in
5:45 AM 8:25 PM
Waning Crescent, 1% visible
Pressure 30.08 in
Visibility 10.0 miles
Clouds Clear
Heat Index 80 °F
Dew Point 22 °F
Humidity 11%
Rainfall 0.00 in
Snow Depth Not available.
UV 5 out of 12
Pollen 4.10 out of 12
Air Quality Not available.
Flu Activity Not available.
METAR KLKV 252355Z AUTO 19003KT 10SM CLR 29/M03 A3008 RMK AO1 10290 20240 402900100 57014

More Conditions Fewer Conditions

Pressure 30.08 in
Visibility 10.0 miles
Clouds Clear
Heat Index 80 °F
Dew Point 22 °F
Humidity 11%
Rainfall 0.00 in
Snow Depth Not available.
UV 5 out of 12
Pollen 4.10 out of 12
Air Quality Not available.
Flu Activity Not available.
METAR KLKV 252355Z AUTO 19003KT 10SM CLR 29/M03 A3008 RMK AO1 10290 20240 402900100 57014

More Conditions Fewer Conditions

10-Day Weather Forecast

Almanac

Astronomy

Jul. 25, 2014 Rise Set
Actual Time 5:45 AM PDT 8:25 PM PDT
Civil Twilight 5:12 AM PDT 8:57 PM PDT
Nautical Twilight 4:31 AM PDT 9:38 PM PDT
Astronomical Twilight 3:45 AM PDT 10:24 PM PDT
Moon 4:49 AM PDT (7/25) 7:24 PM PDT (7/25)
Length of Visible Light 15h 44m
Length of Day
14h 40m
Tomorrow will be 1m 57s shorter.
Waning Crescent, 1% of the Moon is Illuminated
Today
Waning Crescent
Jul 26
New
Aug 3
First Quarter
Aug 10
Full
Aug 17
Last Quarter

Today's Extremes

State Highs State Lows

Community

WunderPhotos

Upload Photos

1,737,452 photos uploaded!

Nearby

Snow Depth

Station Depth Elevation
Strawberry 0 in 5760 ft
Sevenmile Marsh 0 in 6200 ft
Fourmile Lake 0 in 6000 ft
Fish Lake 0 in 4665 ft
Diamond Lake 0 in 5315 ft

Earthquake Activity

City Distance Mag. Time & Date
Lakeview, Oregon 22 miles 2.7 8:51 PM PDT
2014-07-20
Lakeview, Oregon 21 miles 2.5 9:31 AM PDT
2014-07-19
Minimum magnitude displayed is 2.5.

Coastal Water Temperatures

Place Temperature
No Stations Reporting

Nearby Weather Stations

Station Location Temp. Heat Index Dew Point Humidity Wind Precip. Elev Updated Type
RAWS CATNIP MOUNTAIN NV, Adel, OR 82 °F 80 °F 22 °F 11% West  at  9 mph 0.00 in / hr 5750 ft 4:27 PM PDT MADIS
RAWS ROCK CREEK OR, Plush, OR 79 °F 78 °F 29 °F 16% NW  at  10 mph 0.00 in / hr 5649 ft 4:27 PM PDT MADIS

Show More Stations Show Fewer Stations